createdAt,value
2023-04-09T00:00:38.446Z,101104.97
2023-04-09T00:03:08.932Z,101113.41
2023-04-09T00:05:41.982Z,101106.25
2023-04-09T00:08:12.971Z,101108.63
2023-04-09T00:10:44.196Z,101103.09
2023-04-09T00:13:16.962Z,101107.28
2023-04-09T00:15:51.014Z,101111.38
2023-04-09T00:18:21.031Z,101108.53
2023-04-09T00:20:50.717Z,101103.94
2023-04-09T00:23:20.871Z,101098.44
2023-04-09T00:25:53.095Z,101098.28
2023-04-09T00:28:22.034Z,101104.97
2023-04-09T00:30:51.282Z,101096.00
2023-04-09T00:33:20.996Z,101094.81
2023-04-09T00:35:50.393Z,101088.47
2023-04-09T00:38:20.397Z,101097.78
2023-04-09T00:40:53.111Z,101098.47
2023-04-09T00:43:23.019Z,101099.09
2023-04-09T00:45:52.667Z,101095.50
2023-04-09T00:48:22.679Z,101096.19
2023-04-09T00:50:52.226Z,101099.44
2023-04-09T00:53:22.339Z,101092.25
2023-04-09T00:55:54.073Z,101091.22
2023-04-09T00:58:23.982Z,101096.06
2023-04-09T01:00:54.087Z,101094.13
2023-04-09T01:03:24.497Z,101100.00
2023-04-09T01:06:06.064Z,101091.13
2023-04-09T01:08:47.908Z,101094.38
2023-04-09T01:11:29.993Z,101090.63
2023-04-09T01:14:07.080Z,101083.44
2023-04-09T01:16:39.260Z,101088.47
2023-04-09T01:19:17.099Z,101089.13
2023-04-09T01:21:48.068Z,101084.56
2023-04-09T01:24:29.169Z,101086.94
2023-04-09T01:27:04.602Z,101084.94
2023-04-09T01:29:56.267Z,101082.91
2023-04-09T01:32:27.668Z,101082.66
2023-04-09T01:34:58.555Z,101089.41
2023-04-09T01:37:29.881Z,101086.53
2023-04-09T01:40:00.791Z,101088.09
2023-04-09T01:42:31.456Z,101092.13
2023-04-09T01:45:03.524Z,101098.06
2023-04-09T01:47:34.577Z,101087.41
2023-04-09T01:50:05.501Z,101090.63
2023-04-09T01:52:35.966Z,101084.28
2023-04-09T01:55:08.612Z,101092.81
2023-04-09T01:57:38.590Z,101084.81
2023-04-09T02:00:11.942Z,101088.16
2023-04-09T02:02:56.480Z,101087.16
2023-04-09T02:05:30.129Z,101079.19
2023-04-09T02:08:04.521Z,101085.13
2023-04-09T02:10:38.481Z,101084.03
2023-04-09T02:13:15.684Z,101081.34
2023-04-09T02:15:48.341Z,101093.38
2023-04-09T02:18:25.361Z,101084.47
2023-04-09T02:20:55.494Z,101079.91
2023-04-09T02:23:25.285Z,101079.72
2023-04-09T02:25:55.531Z,101076.88
2023-04-09T02:28:25.172Z,101078.38
2023-04-09T02:30:56.733Z,101072.03
2023-04-09T02:33:26.405Z,101072.63
2023-04-09T02:35:55.992Z,101076.66
2023-04-09T02:38:26.239Z,101072.91
2023-04-09T02:40:55.898Z,101074.34
2023-04-09T02:43:25.943Z,101068.06
2023-04-09T02:45:56.895Z,101063.41
2023-04-09T02:48:26.684Z,101064.03
2023-04-09T02:50:56.650Z,101068.06
2023-04-09T02:53:27.584Z,101064.34
2023-04-09T02:56:02.369Z,101060.69
2023-04-09T02:58:32.137Z,101058.69
2023-04-09T03:01:03.918Z,101054.22
2023-04-09T03:03:33.519Z,101058.34
2023-04-09T03:06:03.930Z,101053.75
2023-04-09T03:08:32.892Z,101058.66
2023-04-09T03:11:02.724Z,101048.88
2023-04-09T03:13:33.290Z,101052.00
2023-04-09T03:16:07.854Z,101055.22
2023-04-09T03:18:37.602Z,101045.34
2023-04-09T03:21:08.575Z,101056.44
2023-04-09T03:23:41.011Z,101049.25
2023-04-09T03:26:14.307Z,101048.19
2023-04-09T03:28:51.960Z,101051.38
2023-04-09T03:31:23.957Z,101044.19
2023-04-09T03:33:53.962Z,101044.91
2023-04-09T03:36:28.217Z,101037.75
2023-04-09T03:39:02.293Z,101033.84
2023-04-09T03:41:42.399Z,101034.38
2023-04-09T03:44:16.805Z,101034.97
2023-04-09T03:47:01.001Z,101040.00
2023-04-09T03:49:32.294Z,101037.19
2023-04-09T03:52:16.247Z,101030.81
2023-04-09T03:54:49.691Z,101034.03
2023-04-09T03:57:30.045Z,101032.00
2023-04-09T04:00:00.727Z,101030.06
2023-04-09T04:02:37.872Z,101034.13
2023-04-09T04:05:11.820Z,101032.16
2023-04-09T04:07:47.820Z,101038.81
2023-04-09T04:10:22.916Z,101043.72
2023-04-09T04:12:54.781Z,101036.56
2023-04-09T04:15:31.957Z,101033.66
2023-04-09T04:18:06.432Z,101038.66
2023-04-09T04:20:49.247Z,101041.03
2023-04-09T04:23:18.337Z,101039.81
2023-04-09T04:25:54.422Z,101036.22
2023-04-09T04:28:30.698Z,101039.44
2023-04-09T04:30:59.471Z,101034.06
2023-04-09T04:33:32.034Z,101040.03
2023-04-09T04:36:08.467Z,101042.44
2023-04-09T04:38:42.336Z,101038.81
2023-04-09T04:41:31.819Z,101035.16
2023-04-09T04:44:22.390Z,101040.22
2023-04-09T04:47:02.167Z,101041.81
2023-04-09T04:49:35.619Z,101040.03
2023-04-09T04:52:08.121Z,101041.50
2023-04-09T04:54:39.651Z,101038.81
2023-04-09T04:57:09.440Z,101044.78
2023-04-09T04:59:43.372Z,101043.00
2023-04-09T05:02:15.242Z,101049.97
2023-04-09T05:05:12.040Z,101048.19
2023-04-09T05:07:47.484Z,101049.00
2023-04-09T05:10:17.339Z,101049.78
2023-04-09T05:12:47.957Z,101039.22
2023-04-09T05:15:24.955Z,101053.06
2023-04-09T05:17:54.576Z,101045.97
2023-04-09T05:20:29.138Z,101050.25
2023-04-09T05:23:06.791Z,101048.44
2023-04-09T05:25:44.063Z,101049.38
2023-04-09T05:28:23.989Z,101044.97
2023-04-09T05:31:03.069Z,101048.44
2023-04-09T05:33:38.477Z,101049.38
2023-04-09T05:36:18.875Z,101054.56
2023-04-09T05:38:48.984Z,101048.56
2023-04-09T05:41:18.278Z,101047.75
2023-04-09T05:43:59.478Z,101051.34
2023-04-09T05:46:33.996Z,101052.38
2023-04-09T05:49:03.817Z,101048.19
2023-04-09T05:51:36.713Z,101052.69
2023-04-09T05:54:06.717Z,101053.75
2023-04-09T05:56:39.156Z,101053.06
2023-04-09T05:59:08.856Z,101055.97
2023-04-09T06:01:38.348Z,101052.78
2023-04-09T06:04:07.578Z,101058.16
2023-04-09T06:06:39.426Z,101054.19
2023-04-09T06:09:08.319Z,101045.00
2023-04-09T06:11:40.470Z,101045.44
2023-04-09T06:14:16.453Z,101043.13
2023-04-09T06:16:46.085Z,101053.00
2023-04-09T06:19:18.015Z,101043.91
2023-04-09T06:21:48.411Z,101047.72
2023-04-09T06:24:17.267Z,101049.00
2023-04-09T06:26:46.328Z,101052.88
2023-04-09T06:29:15.853Z,101051.59
2023-04-09T06:31:45.035Z,101057.25
2023-04-09T06:34:13.944Z,101055.94
2023-04-09T06:36:43.984Z,101055.53
2023-04-09T06:39:14.540Z,101056.00
2023-04-09T06:41:46.442Z,101055.59
2023-04-09T06:44:35.452Z,101052.69
2023-04-09T06:47:04.729Z,101060.00
2023-04-09T06:49:33.652Z,101056.22
2023-04-09T06:52:02.374Z,101053.25
2023-04-09T06:54:32.659Z,101062.38
2023-04-09T06:57:01.791Z,101055.91
2023-04-09T06:59:31.222Z,101064.19
2023-04-09T07:02:01.257Z,101057.72
2023-04-09T07:04:30.565Z,101066.81
2023-04-09T07:07:01.452Z,101067.34
2023-04-09T07:09:32.529Z,101065.31
2023-04-09T07:12:01.397Z,101071.91
2023-04-09T07:14:30.991Z,101072.41
2023-04-09T07:17:00.430Z,101078.09
2023-04-09T07:19:29.892Z,101071.63
2023-04-09T07:21:58.972Z,101065.97
2023-04-09T07:24:27.816Z,101065.69
2023-04-09T07:26:58.372Z,101079.22
2023-04-09T07:29:27.474Z,101079.75
2023-04-09T07:31:56.818Z,101086.44
2023-04-09T07:34:26.212Z,101083.38
2023-04-09T07:36:55.776Z,101088.22
2023-04-09T07:39:25.807Z,101085.31
2023-04-09T07:41:56.537Z,101077.00
2023-04-09T07:44:27.568Z,101081.03
2023-04-09T07:46:56.800Z,101081.44
2023-04-09T07:49:26.109Z,101081.00
2023-04-09T07:51:56.612Z,101079.69
2023-04-09T07:54:26.811Z,101077.50
2023-04-09T07:56:57.094Z,101080.53
2023-04-09T07:59:28.602Z,101082.81
2023-04-09T08:01:57.848Z,101074.50
2023-04-09T08:04:27.689Z,101083.63
2023-04-09T08:06:57.451Z,101088.41
2023-04-09T08:09:33.749Z,101091.50
2023-04-09T08:12:02.620Z,101084.06
2023-04-09T08:14:33.908Z,101085.31
2023-04-09T08:17:03.582Z,101078.78
2023-04-09T08:19:32.579Z,101079.22
2023-04-09T08:22:02.652Z,101076.09
2023-04-09T08:24:32.169Z,101075.59
2023-04-09T08:27:02.088Z,101076.84
2023-04-09T08:29:36.585Z,101083.38
2023-04-09T08:32:06.670Z,101074.06
2023-04-09T08:34:37.750Z,101074.44
2023-04-09T08:37:07.399Z,101078.16
2023-04-09T08:39:37.243Z,101079.44
2023-04-09T08:42:08.757Z,101077.09
2023-04-09T08:44:45.735Z,101090.47
2023-04-09T08:47:15.781Z,101082.91
2023-04-09T08:49:45.689Z,101080.66
2023-04-09T08:52:16.537Z,101088.84
2023-04-09T08:54:47.693Z,101083.91
2023-04-09T08:57:17.945Z,101076.31
2023-04-09T09:00:05.299Z,101082.66
2023-04-09T09:02:35.322Z,101075.09
2023-04-09T09:05:06.916Z,101078.88
2023-04-09T09:07:36.300Z,101072.06
2023-04-09T09:10:06.530Z,101076.59
2023-04-09T09:12:39.450Z,101080.16
2023-04-09T09:15:28.908Z,101078.53
2023-04-09T09:18:00.913Z,101079.66
2023-04-09T09:20:33.283Z,101077.31
2023-04-09T09:23:02.805Z,101068.88
2023-04-09T09:25:32.473Z,101064.88
2023-04-09T09:28:10.356Z,101070.50
2023-04-09T09:30:42.766Z,101066.41
2023-04-09T09:33:12.734Z,101060.69
2023-04-09T09:35:55.279Z,101060.09
2023-04-09T09:38:25.565Z,101053.31
2023-04-09T09:40:56.348Z,101049.31
2023-04-09T09:43:27.515Z,101055.81
2023-04-09T09:45:59.791Z,101059.69
2023-04-09T09:48:29.410Z,101048.75
2023-04-09T09:51:00.085Z,101051.69
2023-04-09T09:53:31.791Z,101046.72
2023-04-09T09:56:03.127Z,101050.50
2023-04-09T09:58:38.221Z,101047.28
2023-04-09T10:01:15.627Z,101050.28
2023-04-09T10:03:46.927Z,101041.91
2023-04-09T10:06:17.197Z,101036.22
2023-04-09T10:08:51.308Z,101032.97
2023-04-09T10:11:23.793Z,101032.38
2023-04-09T10:13:58.857Z,101034.22
2023-04-09T10:16:35.827Z,101028.16
2023-04-09T10:19:07.342Z,101024.94
2023-04-09T10:21:43.831Z,101019.97
2023-04-09T10:24:16.168Z,101019.25
2023-04-09T10:26:46.453Z,101021.19
2023-04-09T10:29:18.540Z,101017.06
2023-04-09T10:31:53.533Z,101025.09
2023-04-09T10:34:24.602Z,101028.09
2023-04-09T10:36:55.204Z,101022.28
2023-04-09T10:39:28.878Z,101014.81
2023-04-09T10:41:59.939Z,101020.38
2023-04-09T10:44:32.430Z,101018.97
2023-04-09T10:47:05.984Z,101017.41
2023-04-09T10:49:39.252Z,101017.47
2023-04-09T10:52:11.780Z,101002.66
2023-04-09T10:54:46.588Z,101008.06
2023-04-09T10:57:18.182Z,101013.56
2023-04-09T10:59:49.353Z,101007.75
2023-04-09T11:02:54.842Z,101010.91
2023-04-09T11:05:30.638Z,101001.66
2023-04-09T11:08:05.745Z,101006.31
2023-04-09T11:10:37.135Z,100997.69
2023-04-09T11:13:07.008Z,100995.13
2023-04-09T11:15:38.574Z,100997.09
2023-04-09T11:18:10.144Z,101000.94
2023-04-09T11:20:42.394Z,100997.78
2023-04-09T11:23:13.653Z,100997.09
2023-04-09T11:25:43.326Z,100990.31
2023-04-09T11:28:12.201Z,100986.19
2023-04-09T11:30:43.106Z,100980.41
2023-04-09T11:33:12.988Z,100978.16
2023-04-09T11:35:44.146Z,100974.88
2023-04-09T11:38:13.760Z,100972.22
2023-04-09T11:40:49.508Z,100967.78
2023-04-09T11:43:21.142Z,100982.09
2023-04-09T11:45:51.067Z,100974.47
2023-04-09T11:48:24.360Z,100973.00
2023-04-09T11:50:55.348Z,100970.69
2023-04-09T11:53:24.823Z,100972.66
2023-04-09T11:55:55.947Z,100973.81
2023-04-09T11:58:26.913Z,100967.97
2023-04-09T12:00:57.670Z,100970.91
2023-04-09T12:03:33.712Z,100961.47
2023-04-09T12:06:07.180Z,100958.03
2023-04-09T12:08:37.887Z,100952.72
2023-04-09T12:11:12.809Z,100958.03
2023-04-09T12:13:43.729Z,100956.28
2023-04-09T12:16:14.024Z,100953.53
2023-04-09T12:18:43.858Z,100965.72
2023-04-09T12:21:15.613Z,100974.47
2023-04-09T12:23:46.316Z,100970.06
2023-04-09T12:26:16.091Z,100966.66
2023-04-09T12:28:45.634Z,100974.63
2023-04-09T12:31:15.375Z,100969.34
2023-04-09T12:33:45.563Z,100960.56
2023-04-09T12:36:18.108Z,100955.31
2023-04-09T12:38:49.441Z,100956.28
2023-04-09T12:41:19.266Z,100956.38
2023-04-09T12:43:51.661Z,100959.94
2023-04-09T12:46:21.439Z,100956.44
2023-04-09T12:48:51.181Z,100953.00
2023-04-09T12:51:26.875Z,100951.38
2023-04-09T12:53:58.963Z,100966.44
2023-04-09T12:56:30.239Z,100964.63
2023-04-09T12:59:01.494Z,100961.00
2023-04-09T13:01:30.768Z,100954.00
2023-04-09T13:04:01.205Z,100957.72
2023-04-09T13:06:34.524Z,100951.72
2023-04-09T13:09:04.807Z,100952.03
2023-04-09T13:11:35.191Z,100942.56
2023-04-09T13:14:07.629Z,100947.13
2023-04-09T13:16:41.146Z,100950.69
2023-04-09T13:19:11.923Z,100944.72
2023-04-09T13:21:43.412Z,100943.16
2023-04-09T13:24:13.788Z,100936.25
2023-04-09T13:26:45.080Z,100931.06
2023-04-09T13:29:15.182Z,100934.59
2023-04-09T13:31:43.832Z,100937.25
2023-04-09T13:34:12.704Z,100937.16
2023-04-09T13:36:43.779Z,100937.88
2023-04-09T13:39:12.247Z,100936.81
2023-04-09T13:41:40.840Z,100926.03
2023-04-09T13:44:09.462Z,100918.00
2023-04-09T13:46:37.849Z,100920.78
2023-04-09T13:49:06.354Z,100914.06
2023-04-09T13:51:35.114Z,100905.56
2023-04-09T13:54:05.999Z,100921.69
2023-04-09T13:56:34.796Z,100916.63
2023-04-09T13:59:03.363Z,100916.81
2023-04-09T14:01:32.072Z,100917.97
2023-04-09T14:04:00.954Z,100920.69
2023-04-09T14:06:29.508Z,100922.47
2023-04-09T14:08:58.019Z,100908.44
2023-04-09T14:11:27.828Z,100911.19
2023-04-09T14:13:56.335Z,100905.06
2023-04-09T14:16:24.963Z,100897.16
2023-04-09T14:18:54.502Z,100891.88
2023-04-09T14:21:23.290Z,100889.22
2023-04-09T14:23:52.192Z,100891.03
2023-04-09T14:26:22.205Z,100889.34
2023-04-09T14:28:54.081Z,100878.88
2023-04-09T14:31:22.831Z,100873.63
2023-04-09T14:33:51.448Z,100879.91
2023-04-09T14:36:20.788Z,100876.44
2023-04-09T14:38:51.342Z,100867.63
2023-04-09T14:41:20.060Z,100865.88
2023-04-09T14:43:49.854Z,100869.47
2023-04-09T14:46:24.708Z,100860.66
2023-04-09T14:48:54.777Z,100859.78
2023-04-09T14:51:23.853Z,100865.13
2023-04-09T14:53:55.916Z,100873.06
2023-04-09T14:56:25.425Z,100865.09
2023-04-09T14:58:55.719Z,100870.41
2023-04-09T15:01:29.680Z,100869.53
2023-04-09T15:04:01.181Z,100858.00
2023-04-09T15:06:32.352Z,100858.88
2023-04-09T15:09:02.033Z,100854.44
2023-04-09T15:11:31.178Z,100856.25
2023-04-09T15:13:59.943Z,100852.69
2023-04-09T15:16:33.176Z,100857.13
2023-04-09T15:19:03.150Z,100858.00
2023-04-09T15:21:35.042Z,100859.78
2023-04-09T15:24:05.086Z,100850.91
2023-04-09T15:26:36.992Z,100852.63
2023-04-09T15:29:07.714Z,100857.03
2023-04-09T15:31:41.307Z,100853.44
2023-04-09T15:34:12.133Z,100862.34
2023-04-09T15:36:42.416Z,100865.00
2023-04-09T15:39:16.176Z,100859.69
2023-04-09T15:41:45.042Z,100857.03
2023-04-09T15:44:14.615Z,100854.31
2023-04-09T15:46:44.644Z,100851.66
2023-04-09T15:49:13.372Z,100840.09
2023-04-09T15:51:42.231Z,100850.78
2023-04-09T15:54:11.267Z,100855.22
2023-04-09T15:56:40.459Z,100848.13
2023-04-09T15:59:09.647Z,100849.03
2023-04-09T16:01:41.511Z,100851.72
2023-04-09T16:04:11.676Z,100855.34
2023-04-09T16:06:41.635Z,100853.56
2023-04-09T16:09:10.431Z,100860.69
2023-04-09T16:11:40.536Z,100856.22
2023-04-09T16:14:10.621Z,100861.44
2023-04-09T16:16:39.447Z,100858.69
2023-04-09T16:19:08.609Z,100860.38
2023-04-09T16:21:43.977Z,100861.16
2023-04-09T16:24:13.962Z,100864.53
2023-04-09T16:26:44.862Z,100859.13
2023-04-09T16:29:16.230Z,100852.03
2023-04-09T16:31:46.573Z,100848.50
2023-04-09T16:34:19.217Z,100840.63
2023-04-09T16:36:52.571Z,100841.56
2023-04-09T16:39:22.191Z,100831.88
2023-04-09T16:41:52.224Z,100837.19
2023-04-09T16:44:21.184Z,100827.56
2023-04-09T16:46:49.963Z,100827.56
2023-04-09T16:49:19.538Z,100830.22
2023-04-09T16:51:51.993Z,100825.81
2023-04-09T16:54:21.135Z,100816.97
2023-04-09T16:56:49.855Z,100816.03
2023-04-09T16:59:21.179Z,100815.13
2023-04-09T17:01:52.003Z,100806.19
2023-04-09T17:04:22.115Z,100805.22
2023-04-09T17:06:52.472Z,100813.09
2023-04-09T17:09:21.162Z,100803.28
2023-04-09T17:11:53.010Z,100809.31
2023-04-09T17:14:21.449Z,100806.50
2023-04-09T17:16:52.881Z,100813.38
2023-04-09T17:19:21.992Z,100814.09
2023-04-09T17:21:52.130Z,100819.19
2023-04-09T17:24:20.808Z,100815.47
2023-04-09T17:26:49.452Z,100818.78
2023-04-09T17:29:18.675Z,100822.16
2023-04-09T17:31:48.875Z,100820.19
2023-04-09T17:34:17.500Z,100826.16
2023-04-09T17:36:49.696Z,100827.69
2023-04-09T17:39:19.884Z,100824.91
2023-04-09T17:41:48.901Z,100823.88
2023-04-09T17:44:17.809Z,100826.31
2023-04-09T17:46:47.102Z,100824.38
2023-04-09T17:49:15.822Z,100833.03
2023-04-09T17:51:44.646Z,100825.81
2023-04-09T17:54:13.558Z,100824.72
2023-04-09T17:56:43.977Z,100828.88
2023-04-09T17:59:12.424Z,100832.22
2023-04-09T18:01:41.151Z,100830.31
2023-04-09T18:04:10.918Z,100826.56
2023-04-09T18:06:39.664Z,100842.19
2023-04-09T18:09:08.173Z,100838.41
2023-04-09T18:11:36.680Z,100834.75
2023-04-09T18:14:08.059Z,100834.53
2023-04-09T18:16:38.230Z,100839.69
2023-04-09T18:19:07.531Z,100835.97
2023-04-09T18:21:36.908Z,100838.50
2023-04-09T18:24:06.029Z,100841.84
2023-04-09T18:26:34.560Z,100837.25
2023-04-09T18:29:03.252Z,100837.00
2023-04-09T18:31:33.120Z,100838.59
2023-04-09T18:34:01.778Z,100844.56
2023-04-09T18:36:30.578Z,100851.38
2023-04-09T18:39:00.392Z,100852.03
2023-04-09T18:41:30.115Z,100853.59
2023-04-09T18:43:59.185Z,100848.91
2023-04-09T18:46:28.207Z,100846.00
2023-04-09T18:48:58.107Z,100847.44
2023-04-09T18:51:27.247Z,100843.72
2023-04-09T18:53:55.907Z,100844.41
2023-04-09T18:56:24.715Z,100839.81
2023-04-09T18:58:53.477Z,100841.38
2023-04-09T19:01:23.199Z,100842.88
2023-04-09T19:03:53.662Z,100841.75
2023-04-09T19:06:25.527Z,100842.38
2023-04-09T19:08:57.981Z,100847.41
2023-04-09T19:11:26.645Z,100847.16
2023-04-09T19:13:55.380Z,100845.19
2023-04-09T19:16:24.149Z,100839.75
2023-04-09T19:18:53.113Z,100851.88
2023-04-09T19:21:23.843Z,100848.09
2023-04-09T19:23:52.325Z,100846.16
2023-04-09T19:26:22.228Z,100843.31
2023-04-09T19:28:50.952Z,100847.53
2023-04-09T19:31:19.684Z,100849.97
2023-04-09T19:33:48.336Z,100850.72
2023-04-09T19:36:16.963Z,100842.66
2023-04-09T19:38:46.862Z,100849.44
2023-04-09T19:41:16.170Z,100846.66
2023-04-09T19:43:47.010Z,100862.22
2023-04-09T19:46:15.610Z,100854.06
2023-04-09T19:48:44.817Z,100862.69
2023-04-09T19:51:18.389Z,100855.53
2023-04-09T19:53:49.265Z,100852.69
2023-04-09T19:56:17.983Z,100848.97
2023-04-09T19:58:46.600Z,100851.41
2023-04-09T20:01:15.089Z,100851.25
2023-04-09T20:03:43.864Z,100852.84
2023-04-09T20:06:12.898Z,100857.09
2023-04-09T20:08:41.672Z,100859.63
2023-04-09T20:11:17.426Z,100848.13
2023-04-09T20:13:47.543Z,100850.66
2023-04-09T20:16:16.622Z,100847.06
2023-04-09T20:18:45.351Z,100850.38
2023-04-09T20:21:14.534Z,100849.38
2023-04-09T20:23:45.216Z,100844.03
2023-04-09T20:26:15.523Z,100843.91
2023-04-09T20:28:44.272Z,100852.50
2023-04-09T20:31:13.102Z,100846.34
2023-04-09T20:33:41.969Z,100841.81
2023-04-09T20:36:16.243Z,100846.09
2023-04-09T20:38:44.883Z,100842.41
2023-04-09T20:41:17.010Z,100841.47
2023-04-09T20:43:46.477Z,100842.22
2023-04-09T20:46:15.131Z,100837.69
2023-04-09T20:48:44.672Z,100828.78
2023-04-09T20:51:13.193Z,100832.97
2023-04-09T20:53:41.852Z,100831.09
2023-04-09T20:56:10.413Z,100820.47
2023-04-09T20:58:40.390Z,100834.34
2023-04-09T21:01:10.382Z,100822.81
2023-04-09T21:03:40.169Z,100823.56
2023-04-09T21:06:09.485Z,100825.16
2023-04-09T21:08:42.610Z,100817.28
2023-04-09T21:11:11.292Z,100810.13
2023-04-09T21:13:54.003Z,100824.06
2023-04-09T21:16:24.831Z,100817.81
2023-04-09T21:18:56.440Z,100808.09
2023-04-09T21:21:27.336Z,100813.22
2023-04-09T21:23:55.923Z,100807.88
2023-04-09T21:26:25.036Z,100812.16
2023-04-09T21:28:55.609Z,100821.69
2023-04-09T21:31:24.917Z,100816.41
2023-04-09T21:33:53.539Z,100821.56
2023-04-09T21:36:22.053Z,100818.00
2023-04-09T21:38:52.898Z,100825.81
2023-04-09T21:41:23.519Z,100818.72
2023-04-09T21:43:52.243Z,100820.38
2023-04-09T21:46:22.984Z,100817.69
2023-04-09T21:48:51.949Z,100823.72
2023-04-09T21:51:20.707Z,100814.09
2023-04-09T21:53:49.558Z,100813.13
2023-04-09T21:56:18.103Z,100812.16
2023-04-09T21:58:47.535Z,100804.25
2023-04-09T22:01:28.261Z,100803.25
2023-04-09T22:03:59.776Z,100799.69
2023-04-09T22:06:28.964Z,100794.28
2023-04-09T22:08:58.553Z,100795.09
2023-04-09T22:11:28.780Z,100801.97
2023-04-09T22:13:58.420Z,100800.97
2023-04-09T22:16:27.537Z,100802.63
2023-04-09T22:18:56.461Z,100810.34
2023-04-09T22:21:27.730Z,100818.13
2023-04-09T22:23:56.289Z,100819.84
2023-04-09T22:26:24.978Z,100815.38
2023-04-09T22:28:53.895Z,100830.19
2023-04-09T22:31:22.885Z,100836.25
2023-04-09T22:33:54.535Z,100830.94
2023-04-09T22:36:22.977Z,100837.84
2023-04-09T22:38:53.247Z,100838.63
2023-04-09T22:41:22.876Z,100835.03
2023-04-09T22:43:52.455Z,100834.09
2023-04-09T22:46:21.413Z,100841.81
2023-04-09T22:48:51.659Z,100839.06
2023-04-09T22:51:20.198Z,100844.09
2023-04-09T22:53:48.746Z,100844.78
2023-04-09T22:56:19.473Z,100844.56
2023-04-09T22:58:48.200Z,100840.91
2023-04-09T23:01:21.863Z,100844.16
2023-04-09T23:03:51.283Z,100839.56
2023-04-09T23:06:19.853Z,100835.03
2023-04-09T23:08:48.429Z,100835.66
2023-04-09T23:11:18.436Z,100833.66
2023-04-09T23:13:46.933Z,100837.88
2023-04-09T23:16:15.536Z,100831.56
2023-04-09T23:18:44.746Z,100840.06
2023-04-09T23:21:13.322Z,100832.06
2023-04-09T23:23:41.892Z,100840.44
2023-04-09T23:26:10.438Z,100835.91
2023-04-09T23:28:40.387Z,100833.84
2023-04-09T23:31:08.900Z,100825.88
2023-04-09T23:33:37.482Z,100829.16
2023-04-09T23:36:06.668Z,100823.81
2023-04-09T23:38:35.365Z,100823.56
2023-04-09T23:41:03.925Z,100823.38
2023-04-09T23:43:32.522Z,100828.47
2023-04-09T23:46:02.471Z,100818.78
2023-04-09T23:48:31.051Z,100824.75
2023-04-09T23:50:59.610Z,100825.53
2023-04-09T23:53:28.101Z,100819.31
2023-04-09T23:55:56.615Z,100816.59
2023-04-09T23:58:25.518Z,100807.75
